sensor_id;sensor_type;location;lat;lon;timestamp;P1;durP1;ratioP1;P2;durP2;ratioP2
22812;SDS011;11573;51.334;3.244;2023-09-19T00:00:38;12.65;;;3.08;;
22812;SDS011;11573;51.334;3.244;2023-09-19T00:03:08;16.95;;;3.35;;
22812;SDS011;11573;51.334;3.244;2023-09-19T00:05:36;11.95;;;2.78;;
22812;SDS011;11573;51.334;3.244;2023-09-19T00:08:11;15.40;;;2.90;;
22812;SDS011;11573;51.334;3.244;2023-09-19T00:10:40;14.50;;;3.00;;
22812;SDS011;11573;51.334;3.244;2023-09-19T00:13:09;13.50;;;3.20;;
22812;SDS011;11573;51.334;3.244;2023-09-19T00:15:41;16.10;;;3.30;;
22812;SDS011;11573;51.334;3.244;2023-09-19T00:18:17;10.63;;;2.40;;
22812;SDS011;11573;51.334;3.244;2023-09-19T00:20:49;9.02;;;1.88;;
22812;SDS011;11573;51.334;3.244;2023-09-19T00:23:18;7.80;;;2.38;;
22812;SDS011;11573;51.334;3.244;2023-09-19T00:25:46;14.35;;;2.65;;
22812;SDS011;11573;51.334;3.244;2023-09-19T00:28:13;11.55;;;2.72;;
22812;SDS011;11573;51.334;3.244;2023-09-19T00:30:42;12.60;;;2.58;;
22812;SDS011;11573;51.334;3.244;2023-09-19T00:33:10;11.68;;;2.55;;
22812;SDS011;11573;51.334;3.244;2023-09-19T00:35:49;10.18;;;2.65;;
22812;SDS011;11573;51.334;3.244;2023-09-19T00:38:21;12.20;;;2.80;;
22812;SDS011;11573;51.334;3.244;2023-09-19T00:40:49;13.85;;;2.90;;
22812;SDS011;11573;51.334;3.244;2023-09-19T00:43:20;8.35;;;2.65;;
22812;SDS011;11573;51.334;3.244;2023-09-19T00:45:53;11.27;;;2.75;;
22812;SDS011;11573;51.334;3.244;2023-09-19T00:48:22;12.48;;;2.45;;
22812;SDS011;11573;51.334;3.244;2023-09-19T00:50:51;10.32;;;2.70;;
22812;SDS011;11573;51.334;3.244;2023-09-19T00:53:21;17.23;;;3.20;;
22812;SDS011;11573;51.334;3.244;2023-09-19T00:55:50;13.75;;;2.33;;
22812;SDS011;11573;51.334;3.244;2023-09-19T00:58:18;12.07;;;3.05;;
22812;SDS011;11573;51.334;3.244;2023-09-19T01:00:47;12.10;;;2.72;;
22812;SDS011;11573;51.334;3.244;2023-09-19T01:03:15;13.02;;;2.97;;
22812;SDS011;11573;51.334;3.244;2023-09-19T01:05:45;13.80;;;3.05;;
22812;SDS011;11573;51.334;3.244;2023-09-19T01:08:12;14.88;;;3.00;;
22812;SDS011;11573;51.334;3.244;2023-09-19T01:10:41;14.88;;;3.33;;
22812;SDS011;11573;51.334;3.244;2023-09-19T01:15:55;11.93;;;2.63;;
22812;SDS011;11573;51.334;3.244;2023-09-19T01:18:40;11.93;;;3.15;;
22812;SDS011;11573;51.334;3.244;2023-09-19T01:27:53;13.63;;;3.40;;
22812;SDS011;11573;51.334;3.244;2023-09-19T01:30:13;8.32;;;2.38;;
22812;SDS011;11573;51.334;3.244;2023-09-19T01:32:43;12.40;;;3.20;;
22812;SDS011;11573;51.334;3.244;2023-09-19T01:35:12;15.13;;;3.15;;
22812;SDS011;11573;51.334;3.244;2023-09-19T01:37:40;16.35;;;3.63;;
22812;SDS011;11573;51.334;3.244;2023-09-19T01:40:14;12.63;;;2.70;;
22812;SDS011;11573;51.334;3.244;2023-09-19T01:42:45;22.83;;;3.30;;
22812;SDS011;11573;51.334;3.244;2023-09-19T01:46:07;14.13;;;3.25;;
22812;SDS011;11573;51.334;3.244;2023-09-19T01:51:06;14.65;;;2.95;;
22812;SDS011;11573;51.334;3.244;2023-09-19T01:53:40;16.02;;;3.70;;
22812;SDS011;11573;51.334;3.244;2023-09-19T01:56:25;14.52;;;2.88;;
22812;SDS011;11573;51.334;3.244;2023-09-19T01:59:13;15.80;;;3.47;;
22812;SDS011;11573;51.334;3.244;2023-09-19T02:01:47;12.60;;;2.92;;
22812;SDS011;11573;51.334;3.244;2023-09-19T02:04:16;16.23;;;3.55;;
22812;SDS011;11573;51.334;3.244;2023-09-19T02:06:43;11.55;;;2.80;;
22812;SDS011;11573;51.334;3.244;2023-09-19T02:09:14;15.82;;;3.03;;
22812;SDS011;11573;51.334;3.244;2023-09-19T02:11:41;11.43;;;2.67;;
22812;SDS011;11573;51.334;3.244;2023-09-19T02:14:08;15.65;;;2.95;;
22812;SDS011;11573;51.334;3.244;2023-09-19T02:16:35;15.15;;;2.40;;
22812;SDS011;11573;51.334;3.244;2023-09-19T02:19:03;12.55;;;3.10;;
22812;SDS011;11573;51.334;3.244;2023-09-19T02:21:32;13.10;;;2.95;;
22812;SDS011;11573;51.334;3.244;2023-09-19T02:23:59;10.90;;;2.85;;
22812;SDS011;11573;51.334;3.244;2023-09-19T02:26:26;12.07;;;3.20;;
22812;SDS011;11573;51.334;3.244;2023-09-19T02:28:54;22.42;;;3.42;;
22812;SDS011;11573;51.334;3.244;2023-09-19T02:31:21;10.80;;;2.72;;
22812;SDS011;11573;51.334;3.244;2023-09-19T02:33:49;8.57;;;2.70;;
22812;SDS011;11573;51.334;3.244;2023-09-19T02:36:16;16.48;;;2.78;;
22812;SDS011;11573;51.334;3.244;2023-09-19T02:38:44;15.50;;;2.80;;
22812;SDS011;11573;51.334;3.244;2023-09-19T02:41:11;7.30;;;2.50;;
22812;SDS011;11573;51.334;3.244;2023-09-19T02:43:38;11.63;;;2.88;;
22812;SDS011;11573;51.334;3.244;2023-09-19T02:46:06;8.90;;;2.78;;
22812;SDS011;11573;51.334;3.244;2023-09-19T02:48:33;14.20;;;2.97;;
22812;SDS011;11573;51.334;3.244;2023-09-19T02:51:02;9.50;;;2.47;;
22812;SDS011;11573;51.334;3.244;2023-09-19T02:53:30;9.38;;;2.15;;
22812;SDS011;11573;51.334;3.244;2023-09-19T02:55:58;16.70;;;2.75;;
22812;SDS011;11573;51.334;3.244;2023-09-19T02:58:25;8.77;;;2.75;;
22812;SDS011;11573;51.334;3.244;2023-09-19T03:00:54;9.02;;;2.58;;
22812;SDS011;11573;51.334;3.244;2023-09-19T03:03:22;16.23;;;3.53;;
22812;SDS011;11573;51.334;3.244;2023-09-19T03:05:49;22.30;;;4.07;;
22812;SDS011;11573;51.334;3.244;2023-09-19T03:08:20;11.30;;;3.20;;
22812;SDS011;11573;51.334;3.244;2023-09-19T03:10:48;11.18;;;2.60;;
22812;SDS011;11573;51.334;3.244;2023-09-19T03:13:15;11.00;;;2.83;;
22812;SDS011;11573;51.334;3.244;2023-09-19T03:15:43;9.32;;;2.83;;
22812;SDS011;11573;51.334;3.244;2023-09-19T03:18:14;11.23;;;2.83;;
22812;SDS011;11573;51.334;3.244;2023-09-19T03:20:41;12.18;;;2.90;;
22812;SDS011;11573;51.334;3.244;2023-09-19T03:23:08;13.55;;;3.35;;
22812;SDS011;11573;51.334;3.244;2023-09-19T03:25:36;11.40;;;2.80;;
22812;SDS011;11573;51.334;3.244;2023-09-19T03:28:03;15.32;;;2.72;;
22812;SDS011;11573;51.334;3.244;2023-09-19T03:30:34;14.82;;;2.88;;
22812;SDS011;11573;51.334;3.244;2023-09-19T03:33:04;13.55;;;2.80;;
22812;SDS011;11573;51.334;3.244;2023-09-19T03:35:34;11.85;;;3.00;;
22812;SDS011;11573;51.334;3.244;2023-09-19T03:38:02;14.63;;;3.45;;
22812;SDS011;11573;51.334;3.244;2023-09-19T03:40:29;18.33;;;3.33;;
22812;SDS011;11573;51.334;3.244;2023-09-19T03:43:00;11.57;;;2.53;;
22812;SDS011;11573;51.334;3.244;2023-09-19T03:45:27;17.25;;;3.58;;
22812;SDS011;11573;51.334;3.244;2023-09-19T03:47:54;13.98;;;3.33;;
22812;SDS011;11573;51.334;3.244;2023-09-19T03:50:23;14.77;;;2.90;;
22812;SDS011;11573;51.334;3.244;2023-09-19T03:52:50;23.85;;;3.13;;
22812;SDS011;11573;51.334;3.244;2023-09-19T03:55:22;14.57;;;3.08;;
22812;SDS011;11573;51.334;3.244;2023-09-19T03:57:49;17.33;;;3.42;;
22812;SDS011;11573;51.334;3.244;2023-09-19T04:00:17;14.02;;;2.70;;
22812;SDS011;11573;51.334;3.244;2023-09-19T04:02:48;17.08;;;3.33;;
22812;SDS011;11573;51.334;3.244;2023-09-19T04:05:15;16.45;;;3.10;;
22812;SDS011;11573;51.334;3.244;2023-09-19T04:07:43;15.43;;;3.58;;
22812;SDS011;11573;51.334;3.244;2023-09-19T04:10:10;18.08;;;3.55;;
22812;SDS011;11573;51.334;3.244;2023-09-19T04:12:50;20.95;;;4.30;;
22812;SDS011;11573;51.334;3.244;2023-09-19T04:15:18;13.88;;;3.35;;
22812;SDS011;11573;51.334;3.244;2023-09-19T04:17:46;17.73;;;3.50;;
22812;SDS011;11573;51.334;3.244;2023-09-19T04:20:13;15.55;;;3.55;;
22812;SDS011;11573;51.334;3.244;2023-09-19T04:22:40;19.50;;;3.50;;
22812;SDS011;11573;51.334;3.244;2023-09-19T04:25:07;16.30;;;3.15;;
22812;SDS011;11573;51.334;3.244;2023-09-19T04:27:34;15.20;;;3.00;;
22812;SDS011;11573;51.334;3.244;2023-09-19T04:30:01;22.65;;;4.00;;
22812;SDS011;11573;51.334;3.244;2023-09-19T04:32:30;12.82;;;3.78;;
22812;SDS011;11573;51.334;3.244;2023-09-19T04:34:59;16.80;;;3.35;;
22812;SDS011;11573;51.334;3.244;2023-09-19T04:37:29;17.98;;;3.28;;
22812;SDS011;11573;51.334;3.244;2023-09-19T04:39:56;20.08;;;3.83;;
22812;SDS011;11573;51.334;3.244;2023-09-19T04:42:23;21.90;;;4.20;;
22812;SDS011;11573;51.334;3.244;2023-09-19T04:44:51;17.98;;;3.60;;
22812;SDS011;11573;51.334;3.244;2023-09-19T04:47:19;21.98;;;3.85;;
22812;SDS011;11573;51.334;3.244;2023-09-19T04:49:48;20.10;;;4.47;;
22812;SDS011;11573;51.334;3.244;2023-09-19T04:52:15;16.45;;;3.03;;
22812;SDS011;11573;51.334;3.244;2023-09-19T04:54:43;21.90;;;4.20;;
22812;SDS011;11573;51.334;3.244;2023-09-19T04:57:09;21.27;;;3.47;;
22812;SDS011;11573;51.334;3.244;2023-09-19T04:59:36;13.32;;;3.25;;
22812;SDS011;11573;51.334;3.244;2023-09-19T05:02:04;16.92;;;3.42;;
22812;SDS011;11573;51.334;3.244;2023-09-19T05:04:31;18.48;;;3.83;;
22812;SDS011;11573;51.334;3.244;2023-09-19T05:06:58;15.25;;;3.60;;
22812;SDS011;11573;51.334;3.244;2023-09-19T05:09:27;11.43;;;3.92;;
22812;SDS011;11573;51.334;3.244;2023-09-19T05:11:54;16.25;;;3.97;;
22812;SDS011;11573;51.334;3.244;2023-09-19T05:14:22;13.77;;;3.38;;
22812;SDS011;11573;51.334;3.244;2023-09-19T05:16:49;20.92;;;3.45;;
22812;SDS011;11573;51.334;3.244;2023-09-19T05:19:16;17.52;;;3.60;;
22812;SDS011;11573;51.334;3.244;2023-09-19T05:21:43;22.42;;;3.80;;
22812;SDS011;11573;51.334;3.244;2023-09-19T05:24:11;20.73;;;3.53;;
22812;SDS011;11573;51.334;3.244;2023-09-19T05:26:38;22.63;;;4.28;;
22812;SDS011;11573;51.334;3.244;2023-09-19T05:29:06;12.90;;;3.60;;
22812;SDS011;11573;51.334;3.244;2023-09-19T05:31:34;14.75;;;3.55;;
22812;SDS011;11573;51.334;3.244;2023-09-19T05:34:07;17.77;;;3.72;;
22812;SDS011;11573;51.334;3.244;2023-09-19T05:36:34;22.25;;;3.75;;
22812;SDS011;11573;51.334;3.244;2023-09-19T05:39:01;16.08;;;3.20;;
22812;SDS011;11573;51.334;3.244;2023-09-19T05:41:28;16.80;;;3.70;;
22812;SDS011;11573;51.334;3.244;2023-09-19T05:43:55;15.93;;;4.07;;
22812;SDS011;11573;51.334;3.244;2023-09-19T05:46:22;21.70;;;4.28;;
22812;SDS011;11573;51.334;3.244;2023-09-19T05:48:49;11.80;;;3.63;;
22812;SDS011;11573;51.334;3.244;2023-09-19T05:51:16;24.73;;;4.60;;
22812;SDS011;11573;51.334;3.244;2023-09-19T05:53:44;30.08;;;4.82;;
22812;SDS011;11573;51.334;3.244;2023-09-19T05:56:14;26.05;;;3.80;;
22812;SDS011;11573;51.334;3.244;2023-09-19T05:58:41;20.45;;;3.88;;
22812;SDS011;11573;51.334;3.244;2023-09-19T06:01:10;19.90;;;4.03;;
22812;SDS011;11573;51.334;3.244;2023-09-19T06:03:37;20.42;;;4.40;;
22812;SDS011;11573;51.334;3.244;2023-09-19T06:06:05;21.25;;;3.72;;
22812;SDS011;11573;51.334;3.244;2023-09-19T06:08:33;16.80;;;3.60;;
22812;SDS011;11573;51.334;3.244;2023-09-19T06:11:00;17.05;;;4.07;;
22812;SDS011;11573;51.334;3.244;2023-09-19T06:13:30;15.52;;;3.90;;
22812;SDS011;11573;51.334;3.244;2023-09-19T06:16:00;18.05;;;3.92;;
22812;SDS011;11573;51.334;3.244;2023-09-19T06:18:29;22.00;;;4.15;;
22812;SDS011;11573;51.334;3.244;2023-09-19T06:20:59;19.02;;;3.92;;
22812;SDS011;11573;51.334;3.244;2023-09-19T06:23:27;16.52;;;3.85;;
22812;SDS011;11573;51.334;3.244;2023-09-19T06:25:55;13.25;;;3.53;;
22812;SDS011;11573;51.334;3.244;2023-09-19T06:28:23;21.08;;;4.07;;
22812;SDS011;11573;51.334;3.244;2023-09-19T06:30:50;17.42;;;3.90;;
22812;SDS011;11573;51.334;3.244;2023-09-19T06:33:17;20.00;;;3.50;;
22812;SDS011;11573;51.334;3.244;2023-09-19T06:35:47;21.48;;;4.13;;
22812;SDS011;11573;51.334;3.244;2023-09-19T06:38:14;14.77;;;3.55;;
22812;SDS011;11573;51.334;3.244;2023-09-19T06:40:42;15.02;;;3.85;;
22812;SDS011;11573;51.334;3.244;2023-09-19T06:43:12;21.77;;;4.40;;
22812;SDS011;11573;51.334;3.244;2023-09-19T06:45:40;13.02;;;3.88;;
22812;SDS011;11573;51.334;3.244;2023-09-19T06:48:07;15.82;;;3.58;;
22812;SDS011;11573;51.334;3.244;2023-09-19T06:50:36;21.27;;;3.88;;
22812;SDS011;11573;51.334;3.244;2023-09-19T06:53:04;12.18;;;3.35;;
22812;SDS011;11573;51.334;3.244;2023-09-19T06:55:31;17.88;;;3.70;;
22812;SDS011;11573;51.334;3.244;2023-09-19T06:57:59;17.42;;;4.07;;
22812;SDS011;11573;51.334;3.244;2023-09-19T07:00:26;20.05;;;3.53;;
22812;SDS011;11573;51.334;3.244;2023-09-19T07:05:31;22.52;;;4.40;;
22812;SDS011;11573;51.334;3.244;2023-09-19T07:07:58;17.38;;;3.65;;
22812;SDS011;11573;51.334;3.244;2023-09-19T07:10:26;17.98;;;3.20;;
22812;SDS011;11573;51.334;3.244;2023-09-19T07:12:55;19.73;;;3.88;;
22812;SDS011;11573;51.334;3.244;2023-09-19T07:15:32;20.17;;;3.65;;
22812;SDS011;11573;51.334;3.244;2023-09-19T07:18:05;17.65;;;4.30;;
22812;SDS011;11573;51.334;3.244;2023-09-19T07:20:32;13.70;;;3.10;;
22812;SDS011;11573;51.334;3.244;2023-09-19T07:23:01;18.25;;;3.88;;
22812;SDS011;11573;51.334;3.244;2023-09-19T07:25:28;21.48;;;4.03;;
22812;SDS011;11573;51.334;3.244;2023-09-19T07:27:59;19.08;;;3.53;;
22812;SDS011;11573;51.334;3.244;2023-09-19T07:30:27;18.02;;;3.42;;
22812;SDS011;11573;51.334;3.244;2023-09-19T07:32:55;21.10;;;4.63;;
22812;SDS011;11573;51.334;3.244;2023-09-19T07:35:22;15.13;;;3.78;;
22812;SDS011;11573;51.334;3.244;2023-09-19T07:37:49;16.33;;;3.45;;
22812;SDS011;11573;51.334;3.244;2023-09-19T07:40:18;13.93;;;3.53;;
22812;SDS011;11573;51.334;3.244;2023-09-19T07:42:47;22.92;;;3.42;;
22812;SDS011;11573;51.334;3.244;2023-09-19T07:45:14;14.68;;;3.85;;
22812;SDS011;11573;51.334;3.244;2023-09-19T07:47:44;16.20;;;3.50;;
22812;SDS011;11573;51.334;3.244;2023-09-19T07:50:12;22.10;;;4.50;;
22812;SDS011;11573;51.334;3.244;2023-09-19T07:52:42;16.65;;;4.25;;
22812;SDS011;11573;51.334;3.244;2023-09-19T07:55:12;17.20;;;4.28;;
22812;SDS011;11573;51.334;3.244;2023-09-19T07:57:43;16.90;;;3.72;;
22812;SDS011;11573;51.334;3.244;2023-09-19T08:00:10;14.57;;;3.83;;
22812;SDS011;11573;51.334;3.244;2023-09-19T08:02:39;16.50;;;3.90;;
22812;SDS011;11573;51.334;3.244;2023-09-19T08:05:07;18.48;;;4.15;;
22812;SDS011;11573;51.334;3.244;2023-09-19T08:07:38;15.75;;;3.60;;
22812;SDS011;11573;51.334;3.244;2023-09-19T08:10:06;19.08;;;4.10;;
22812;SDS011;11573;51.334;3.244;2023-09-19T08:12:34;19.65;;;3.75;;
22812;SDS011;11573;51.334;3.244;2023-09-19T08:15:05;16.63;;;3.90;;
22812;SDS011;11573;51.334;3.244;2023-09-19T08:17:34;25.50;;;3.95;;
22812;SDS011;11573;51.334;3.244;2023-09-19T08:20:02;14.25;;;3.03;;
22812;SDS011;11573;51.334;3.244;2023-09-19T08:22:31;17.17;;;3.53;;
22812;SDS011;11573;51.334;3.244;2023-09-19T08:24:58;18.85;;;3.50;;
22812;SDS011;11573;51.334;3.244;2023-09-19T08:27:25;22.88;;;3.60;;
22812;SDS011;11573;51.334;3.244;2023-09-19T08:29:55;14.27;;;3.53;;
22812;SDS011;11573;51.334;3.244;2023-09-19T08:32:22;17.63;;;4.45;;
22812;SDS011;11573;51.334;3.244;2023-09-19T08:34:52;14.05;;;4.32;;
22812;SDS011;11573;51.334;3.244;2023-09-19T08:37:19;13.10;;;3.65;;
22812;SDS011;11573;51.334;3.244;2023-09-19T08:39:46;15.63;;;3.22;;
22812;SDS011;11573;51.334;3.244;2023-09-19T08:42:13;21.15;;;4.30;;
22812;SDS011;11573;51.334;3.244;2023-09-19T08:44:41;14.18;;;3.78;;
22812;SDS011;11573;51.334;3.244;2023-09-19T08:47:10;25.45;;;4.57;;
22812;SDS011;11573;51.334;3.244;2023-09-19T08:52:23;15.27;;;3.15;;
22812;SDS011;11573;51.334;3.244;2023-09-19T08:54:55;13.32;;;3.00;;
22812;SDS011;11573;51.334;3.244;2023-09-19T08:57:28;15.88;;;3.47;;
22812;SDS011;11573;51.334;3.244;2023-09-19T08:59:59;14.82;;;3.13;;
22812;SDS011;11573;51.334;3.244;2023-09-19T09:02:32;16.00;;;3.67;;
22812;SDS011;11573;51.334;3.244;2023-09-19T09:05:00;16.90;;;3.28;;
22812;SDS011;11573;51.334;3.244;2023-09-19T09:07:31;19.35;;;4.43;;
22812;SDS011;11573;51.334;3.244;2023-09-19T09:10:02;10.13;;;3.00;;
22812;SDS011;11573;51.334;3.244;2023-09-19T09:12:29;10.68;;;3.17;;
22812;SDS011;11573;51.334;3.244;2023-09-19T09:14:57;13.48;;;3.22;;
22812;SDS011;11573;51.334;3.244;2023-09-19T09:17:24;13.38;;;3.17;;
22812;SDS011;11573;51.334;3.244;2023-09-19T09:19:54;15.68;;;3.35;;
22812;SDS011;11573;51.334;3.244;2023-09-19T09:22:21;11.38;;;2.95;;
22812;SDS011;11573;51.334;3.244;2023-09-19T09:24:55;18.30;;;3.75;;
22812;SDS011;11573;51.334;3.244;2023-09-19T09:27:25;10.32;;;2.95;;
22812;SDS011;11573;51.334;3.244;2023-09-19T09:29:52;11.63;;;3.20;;
22812;SDS011;11573;51.334;3.244;2023-09-19T09:34:50;9.10;;;2.83;;
22812;SDS011;11573;51.334;3.244;2023-09-19T09:37:18;19.88;;;3.35;;
22812;SDS011;11573;51.334;3.244;2023-09-19T09:39:53;8.68;;;2.92;;
22812;SDS011;11573;51.334;3.244;2023-09-19T09:42:35;9.02;;;2.40;;
22812;SDS011;11573;51.334;3.244;2023-09-19T09:45:18;10.40;;;2.70;;
22812;SDS011;11573;51.334;3.244;2023-09-19T09:48:04;10.77;;;2.67;;
22812;SDS011;11573;51.334;3.244;2023-09-19T09:50:48;11.23;;;2.28;;
22812;SDS011;11573;51.334;3.244;2023-09-19T09:53:28;11.63;;;2.92;;
22812;SDS011;11573;51.334;3.244;2023-09-19T09:58:32;16.42;;;2.75;;
22812;SDS011;11573;51.334;3.244;2023-09-19T10:00:59;10.45;;;2.83;;
22812;SDS011;11573;51.334;3.244;2023-09-19T10:03:32;10.50;;;2.83;;
22812;SDS011;11573;51.334;3.244;2023-09-19T10:06:06;10.52;;;2.25;;
22812;SDS011;11573;51.334;3.244;2023-09-19T10:09:04;6.03;;;2.22;;
22812;SDS011;11573;51.334;3.244;2023-09-19T10:11:45;9.52;;;2.60;;
22812;SDS011;11573;51.334;3.244;2023-09-19T10:14:31;6.95;;;2.40;;
22812;SDS011;11573;51.334;3.244;2023-09-19T10:17:05;12.70;;;2.30;;
22812;SDS011;11573;51.334;3.244;2023-09-19T10:22:18;8.88;;;2.55;;
22812;SDS011;11573;51.334;3.244;2023-09-19T10:24:48;7.65;;;2.53;;
22812;SDS011;11573;51.334;3.244;2023-09-19T10:27:22;9.05;;;2.42;;
22812;SDS011;11573;51.334;3.244;2023-09-19T10:29:52;9.07;;;2.42;;
22812;SDS011;11573;51.334;3.244;2023-09-19T10:32:22;10.73;;;2.45;;
22812;SDS011;11573;51.334;3.244;2023-09-19T10:34:50;6.47;;;1.77;;
22812;SDS011;11573;51.334;3.244;2023-09-19T10:37:22;9.35;;;2.10;;
22812;SDS011;11573;51.334;3.244;2023-09-19T10:39:53;9.90;;;2.05;;
22812;SDS011;11573;51.334;3.244;2023-09-19T10:42:22;11.13;;;2.60;;
22812;SDS011;11573;51.334;3.244;2023-09-19T10:44:55;8.35;;;1.92;;
22812;SDS011;11573;51.334;3.244;2023-09-19T10:47:26;11.18;;;2.28;;
22812;SDS011;11573;51.334;3.244;2023-09-19T10:49:53;8.13;;;2.10;;
22812;SDS011;11573;51.334;3.244;2023-09-19T10:52:22;12.25;;;2.40;;
22812;SDS011;11573;51.334;3.244;2023-09-19T10:54:53;11.07;;;1.83;;
22812;SDS011;11573;51.334;3.244;2023-09-19T10:57:24;7.10;;;2.08;;
22812;SDS011;11573;51.334;3.244;2023-09-19T11:00:01;13.02;;;2.88;;
22812;SDS011;11573;51.334;3.244;2023-09-19T11:05:39;9.30;;;2.58;;
22812;SDS011;11573;51.334;3.244;2023-09-19T11:08:07;10.27;;;2.35;;
22812;SDS011;11573;51.334;3.244;2023-09-19T11:10:48;10.80;;;2.00;;
22812;SDS011;11573;51.334;3.244;2023-09-19T11:26:40;5.68;;;2.30;;
22812;SDS011;11573;51.334;3.244;2023-09-19T11:29:30;11.20;;;2.30;;
22812;SDS011;11573;51.334;3.244;2023-09-19T11:31:58;9.05;;;2.15;;
22812;SDS011;11573;51.334;3.244;2023-09-19T11:40:05;10.00;;;1.83;;
22812;SDS011;11573;51.334;3.244;2023-09-19T11:42:46;10.63;;;2.58;;
22812;SDS011;11573;51.334;3.244;2023-09-19T11:48:18;9.10;;;2.47;;
22812;SDS011;11573;51.334;3.244;2023-09-19T11:50:46;10.32;;;2.60;;
22812;SDS011;11573;51.334;3.244;2023-09-19T11:53:14;7.65;;;2.47;;
22812;SDS011;11573;51.334;3.244;2023-09-19T11:55:42;9.27;;;2.40;;
22812;SDS011;11573;51.334;3.244;2023-09-19T11:58:10;12.00;;;2.90;;
22812;SDS011;11573;51.334;3.244;2023-09-19T12:00:41;14.48;;;2.90;;
22812;SDS011;11573;51.334;3.244;2023-09-19T12:03:11;12.95;;;3.15;;
22812;SDS011;11573;51.334;3.244;2023-09-19T12:05:41;16.52;;;3.33;;
22812;SDS011;11573;51.334;3.244;2023-09-19T12:08:08;10.25;;;3.22;;
22812;SDS011;11573;51.334;3.244;2023-09-19T12:10:45;13.57;;;3.20;;
22812;SDS011;11573;51.334;3.244;2023-09-19T12:13:20;10.60;;;2.42;;
22812;SDS011;11573;51.334;3.244;2023-09-19T12:15:48;13.20;;;2.80;;
22812;SDS011;11573;51.334;3.244;2023-09-19T12:18:30;12.32;;;3.47;;
22812;SDS011;11573;51.334;3.244;2023-09-19T12:20:59;11.23;;;3.05;;
22812;SDS011;11573;51.334;3.244;2023-09-19T12:23:28;9.65;;;2.65;;
22812;SDS011;11573;51.334;3.244;2023-09-19T12:25:56;11.75;;;3.03;;
22812;SDS011;11573;51.334;3.244;2023-09-19T12:28:27;13.88;;;3.58;;
22812;SDS011;11573;51.334;3.244;2023-09-19T12:33:34;10.02;;;3.28;;
22812;SDS011;11573;51.334;3.244;2023-09-19T12:36:19;9.70;;;3.40;;
22812;SDS011;11573;51.334;3.244;2023-09-19T12:38:51;7.90;;;3.20;;
22812;SDS011;11573;51.334;3.244;2023-09-19T12:41:19;9.77;;;3.13;;
22812;SDS011;11573;51.334;3.244;2023-09-19T12:43:48;13.27;;;3.38;;
22812;SDS011;11573;51.334;3.244;2023-09-19T12:46:19;15.77;;;3.42;;
22812;SDS011;11573;51.334;3.244;2023-09-19T12:51:45;11.02;;;3.10;;
22812;SDS011;11573;51.334;3.244;2023-09-19T12:54:16;16.92;;;3.53;;
22812;SDS011;11573;51.334;3.244;2023-09-19T12:56:44;13.68;;;3.13;;
22812;SDS011;11573;51.334;3.244;2023-09-19T12:59:12;8.10;;;2.83;;
22812;SDS011;11573;51.334;3.244;2023-09-19T13:01:40;20.25;;;3.70;;
22812;SDS011;11573;51.334;3.244;2023-09-19T13:04:12;11.98;;;2.97;;
22812;SDS011;11573;51.334;3.244;2023-09-19T13:06:45;11.55;;;3.33;;
22812;SDS011;11573;51.334;3.244;2023-09-19T13:09:15;11.40;;;2.63;;
22812;SDS011;11573;51.334;3.244;2023-09-19T13:11:43;9.77;;;2.85;;
22812;SDS011;11573;51.334;3.244;2023-09-19T13:14:14;16.70;;;3.55;;
22812;SDS011;11573;51.334;3.244;2023-09-19T13:19:38;12.82;;;2.97;;
22812;SDS011;11573;51.334;3.244;2023-09-19T13:25:13;12.35;;;3.00;;
22812;SDS011;11573;51.334;3.244;2023-09-19T13:27:46;10.13;;;2.92;;
22812;SDS011;11573;51.334;3.244;2023-09-19T13:30:18;9.93;;;3.25;;
22812;SDS011;11573;51.334;3.244;2023-09-19T13:32:45;12.18;;;3.97;;
22812;SDS011;11573;51.334;3.244;2023-09-19T13:35:14;12.70;;;3.60;;
22812;SDS011;11573;51.334;3.244;2023-09-19T13:37:42;12.68;;;3.50;;
22812;SDS011;11573;51.334;3.244;2023-09-19T13:40:10;13.10;;;3.50;;
22812;SDS011;11573;51.334;3.244;2023-09-19T13:42:38;24.95;;;5.32;;
22812;SDS011;11573;51.334;3.244;2023-09-19T13:45:06;14.05;;;3.53;;
22812;SDS011;11573;51.334;3.244;2023-09-19T13:47:34;15.18;;;4.20;;
22812;SDS011;11573;51.334;3.244;2023-09-19T13:50:02;14.85;;;4.38;;
22812;SDS011;11573;51.334;3.244;2023-09-19T13:52:31;13.20;;;3.55;;
22812;SDS011;11573;51.334;3.244;2023-09-19T13:54:59;11.52;;;3.90;;
22812;SDS011;11573;51.334;3.244;2023-09-19T13:57:26;12.27;;;3.63;;
22812;SDS011;11573;51.334;3.244;2023-09-19T13:59:53;19.90;;;4.35;;
22812;SDS011;11573;51.334;3.244;2023-09-19T14:02:21;17.83;;;3.58;;
22812;SDS011;11573;51.334;3.244;2023-09-19T14:04:52;18.13;;;4.40;;
22812;SDS011;11573;51.334;3.244;2023-09-19T14:07:19;13.15;;;4.13;;
22812;SDS011;11573;51.334;3.244;2023-09-19T14:09:47;18.23;;;4.18;;
22812;SDS011;11573;51.334;3.244;2023-09-19T14:12:14;15.18;;;4.43;;
22812;SDS011;11573;51.334;3.244;2023-09-19T14:14:42;14.13;;;4.20;;
22812;SDS011;11573;51.334;3.244;2023-09-19T14:17:09;13.98;;;4.07;;
22812;SDS011;11573;51.334;3.244;2023-09-19T14:19:36;14.07;;;3.72;;
22812;SDS011;11573;51.334;3.244;2023-09-19T14:22:04;20.20;;;4.28;;
22812;SDS011;11573;51.334;3.244;2023-09-19T14:24:34;18.95;;;4.55;;
22812;SDS011;11573;51.334;3.244;2023-09-19T14:27:02;12.05;;;3.90;;
22812;SDS011;11573;51.334;3.244;2023-09-19T14:29:30;19.55;;;3.97;;
22812;SDS011;11573;51.334;3.244;2023-09-19T14:31:58;13.00;;;3.42;;
22812;SDS011;11573;51.334;3.244;2023-09-19T14:34:25;16.73;;;3.92;;
22812;SDS011;11573;51.334;3.244;2023-09-19T14:36:53;12.88;;;3.42;;
22812;SDS011;11573;51.334;3.244;2023-09-19T14:39:23;16.00;;;4.35;;
22812;SDS011;11573;51.334;3.244;2023-09-19T14:41:50;18.67;;;4.28;;
22812;SDS011;11573;51.334;3.244;2023-09-19T14:44:18;17.05;;;4.97;;
22812;SDS011;11573;51.334;3.244;2023-09-19T14:46:45;17.63;;;4.55;;
22812;SDS011;11573;51.334;3.244;2023-09-19T14:49:12;16.92;;;4.95;;
22812;SDS011;11573;51.334;3.244;2023-09-19T14:51:39;14.95;;;4.00;;
22812;SDS011;11573;51.334;3.244;2023-09-19T14:54:07;17.70;;;4.38;;
22812;SDS011;11573;51.334;3.244;2023-09-19T14:56:34;16.95;;;3.60;;
22812;SDS011;11573;51.334;3.244;2023-09-19T14:59:01;14.05;;;3.85;;
22812;SDS011;11573;51.334;3.244;2023-09-19T15:01:29;18.58;;;3.80;;
22812;SDS011;11573;51.334;3.244;2023-09-19T15:03:56;20.30;;;5.45;;
22812;SDS011;11573;51.334;3.244;2023-09-19T15:06:23;14.25;;;4.38;;
22812;SDS011;11573;51.334;3.244;2023-09-19T15:08:52;14.93;;;4.03;;
22812;SDS011;11573;51.334;3.244;2023-09-19T15:11:20;15.45;;;4.18;;
22812;SDS011;11573;51.334;3.244;2023-09-19T15:13:48;14.02;;;4.03;;
22812;SDS011;11573;51.334;3.244;2023-09-19T15:16:18;11.57;;;3.45;;
22812;SDS011;11573;51.334;3.244;2023-09-19T15:18:46;14.40;;;4.38;;
22812;SDS011;11573;51.334;3.244;2023-09-19T15:21:16;16.63;;;3.65;;
22812;SDS011;11573;51.334;3.244;2023-09-19T15:23:43;16.58;;;4.85;;
22812;SDS011;11573;51.334;3.244;2023-09-19T15:26:12;13.95;;;4.50;;
22812;SDS011;11573;51.334;3.244;2023-09-19T15:28:43;13.10;;;3.80;;
22812;SDS011;11573;51.334;3.244;2023-09-19T15:31:11;14.73;;;4.20;;
22812;SDS011;11573;51.334;3.244;2023-09-19T15:33:39;15.05;;;4.97;;
22812;SDS011;11573;51.334;3.244;2023-09-19T15:36:07;19.48;;;4.63;;
22812;SDS011;11573;51.334;3.244;2023-09-19T15:41:38;14.02;;;4.28;;
22812;SDS011;11573;51.334;3.244;2023-09-19T15:44:14;15.55;;;4.43;;
22812;SDS011;11573;51.334;3.244;2023-09-19T15:46:43;15.63;;;4.75;;
22812;SDS011;11573;51.334;3.244;2023-09-19T15:49:11;15.23;;;4.45;;
22812;SDS011;11573;51.334;3.244;2023-09-19T15:51:38;15.40;;;5.20;;
22812;SDS011;11573;51.334;3.244;2023-09-19T15:54:08;17.08;;;4.85;;